sensor_id;sensor_type;location;lat;lon;timestamp;P1;durP1;ratioP1;P2;durP2;ratioP2
37535;SDS011;23379;51.554;6.736;2023-06-14T00:00:12;9.85;;;5.00;;
37535;SDS011;23379;51.554;6.736;2023-06-14T00:02:39;10.13;;;4.63;;
37535;SDS011;23379;51.554;6.736;2023-06-14T00:05:05;7.82;;;4.88;;
37535;SDS011;23379;51.554;6.736;2023-06-14T00:07:41;7.43;;;5.20;;
37535;SDS011;23379;51.554;6.736;2023-06-14T00:10:13;6.22;;;5.10;;
37535;SDS011;23379;51.554;6.736;2023-06-14T00:12:39;7.25;;;4.97;;
37535;SDS011;23379;51.554;6.736;2023-06-14T00:15:05;6.95;;;4.75;;
37535;SDS011;23379;51.554;6.736;2023-06-14T00:17:31;9.38;;;4.95;;
37535;SDS011;23379;51.554;6.736;2023-06-14T00:19:57;7.30;;;4.93;;
37535;SDS011;23379;51.554;6.736;2023-06-14T00:22:23;7.72;;;4.65;;
37535;SDS011;23379;51.554;6.736;2023-06-14T00:24:53;6.60;;;5.20;;
37535;SDS011;23379;51.554;6.736;2023-06-14T00:27:19;8.65;;;5.38;;
37535;SDS011;23379;51.554;6.736;2023-06-14T00:29:44;8.02;;;4.97;;
37535;SDS011;23379;51.554;6.736;2023-06-14T00:32:10;8.13;;;5.25;;
37535;SDS011;23379;51.554;6.736;2023-06-14T00:34:35;8.88;;;5.15;;
37535;SDS011;23379;51.554;6.736;2023-06-14T00:37:01;8.18;;;5.03;;
37535;SDS011;23379;51.554;6.736;2023-06-14T00:39:26;9.40;;;5.22;;
37535;SDS011;23379;51.554;6.736;2023-06-14T00:41:52;7.05;;;4.68;;
37535;SDS011;23379;51.554;6.736;2023-06-14T00:44:17;10.98;;;5.38;;
37535;SDS011;23379;51.554;6.736;2023-06-14T00:46:44;5.15;;;4.53;;
37535;SDS011;23379;51.554;6.736;2023-06-14T00:49:10;7.88;;;4.78;;
37535;SDS011;23379;51.554;6.736;2023-06-14T00:51:38;10.20;;;5.45;;
37535;SDS011;23379;51.554;6.736;2023-06-14T00:54:04;9.60;;;4.88;;
37535;SDS011;23379;51.554;6.736;2023-06-14T00:56:29;12.80;;;4.93;;
37535;SDS011;23379;51.554;6.736;2023-06-14T00:58:55;8.32;;;5.00;;
37535;SDS011;23379;51.554;6.736;2023-06-14T01:01:22;9.20;;;5.03;;
37535;SDS011;23379;51.554;6.736;2023-06-14T01:03:49;9.60;;;4.90;;
37535;SDS011;23379;51.554;6.736;2023-06-14T01:08:56;9.07;;;4.95;;
37535;SDS011;23379;51.554;6.736;2023-06-14T01:11:39;11.50;;;5.40;;
37535;SDS011;23379;51.554;6.736;2023-06-14T01:14:10;6.78;;;4.32;;
37535;SDS011;23379;51.554;6.736;2023-06-14T01:16:37;8.25;;;4.72;;
37535;SDS011;23379;51.554;6.736;2023-06-14T01:19:04;6.43;;;4.80;;
37535;SDS011;23379;51.554;6.736;2023-06-14T01:21:30;6.38;;;5.03;;
37535;SDS011;23379;51.554;6.736;2023-06-14T01:23:58;7.13;;;5.10;;
37535;SDS011;23379;51.554;6.736;2023-06-14T01:26:24;8.65;;;5.13;;
37535;SDS011;23379;51.554;6.736;2023-06-14T01:28:51;11.57;;;4.68;;
37535;SDS011;23379;51.554;6.736;2023-06-14T01:31:21;9.00;;;5.05;;
37535;SDS011;23379;51.554;6.736;2023-06-14T01:33:48;11.43;;;4.72;;
37535;SDS011;23379;51.554;6.736;2023-06-14T01:36:17;8.73;;;4.32;;
37535;SDS011;23379;51.554;6.736;2023-06-14T01:38:44;7.55;;;4.00;;
37535;SDS011;23379;51.554;6.736;2023-06-14T01:41:11;6.20;;;4.25;;
37535;SDS011;23379;51.554;6.736;2023-06-14T01:43:36;6.00;;;4.90;;
37535;SDS011;23379;51.554;6.736;2023-06-14T01:46:04;9.07;;;4.68;;
37535;SDS011;23379;51.554;6.736;2023-06-14T01:48:31;8.80;;;4.80;;
37535;SDS011;23379;51.554;6.736;2023-06-14T01:50:56;7.32;;;3.90;;
37535;SDS011;23379;51.554;6.736;2023-06-14T01:53:22;10.70;;;4.90;;
37535;SDS011;23379;51.554;6.736;2023-06-14T01:55:47;10.80;;;4.65;;
37535;SDS011;23379;51.554;6.736;2023-06-14T01:58:13;16.27;;;4.90;;
37535;SDS011;23379;51.554;6.736;2023-06-14T02:00:41;5.78;;;3.78;;
37535;SDS011;23379;51.554;6.736;2023-06-14T02:03:08;6.75;;;4.07;;
37535;SDS011;23379;51.554;6.736;2023-06-14T02:05:33;6.72;;;4.40;;
37535;SDS011;23379;51.554;6.736;2023-06-14T02:07:59;8.85;;;4.05;;
37535;SDS011;23379;51.554;6.736;2023-06-14T02:10:25;7.40;;;4.22;;
37535;SDS011;23379;51.554;6.736;2023-06-14T02:12:51;9.88;;;4.28;;
37535;SDS011;23379;51.554;6.736;2023-06-14T02:15:16;8.40;;;4.65;;
37535;SDS011;23379;51.554;6.736;2023-06-14T02:17:43;7.57;;;4.55;;
37535;SDS011;23379;51.554;6.736;2023-06-14T02:20:09;6.28;;;4.30;;
37535;SDS011;23379;51.554;6.736;2023-06-14T02:22:35;8.10;;;3.83;;
37535;SDS011;23379;51.554;6.736;2023-06-14T02:25:01;7.95;;;4.10;;
37535;SDS011;23379;51.554;6.736;2023-06-14T02:27:26;4.63;;;4.05;;
37535;SDS011;23379;51.554;6.736;2023-06-14T02:29:51;9.23;;;4.15;;
37535;SDS011;23379;51.554;6.736;2023-06-14T02:32:17;7.65;;;3.65;;
37535;SDS011;23379;51.554;6.736;2023-06-14T02:34:42;7.20;;;3.85;;
37535;SDS011;23379;51.554;6.736;2023-06-14T02:37:08;9.50;;;3.83;;
37535;SDS011;23379;51.554;6.736;2023-06-14T02:39:33;6.35;;;4.13;;
37535;SDS011;23379;51.554;6.736;2023-06-14T02:41:59;8.35;;;4.00;;
37535;SDS011;23379;51.554;6.736;2023-06-14T02:44:25;5.32;;;3.78;;
37535;SDS011;23379;51.554;6.736;2023-06-14T02:46:54;10.57;;;3.78;;
37535;SDS011;23379;51.554;6.736;2023-06-14T02:49:20;5.00;;;3.83;;
37535;SDS011;23379;51.554;6.736;2023-06-14T02:51:46;5.38;;;3.97;;
37535;SDS011;23379;51.554;6.736;2023-06-14T02:54:11;6.82;;;3.90;;
37535;SDS011;23379;51.554;6.736;2023-06-14T02:56:37;13.23;;;4.68;;
37535;SDS011;23379;51.554;6.736;2023-06-14T02:59:02;6.15;;;3.90;;
37535;SDS011;23379;51.554;6.736;2023-06-14T03:01:27;8.02;;;3.60;;
37535;SDS011;23379;51.554;6.736;2023-06-14T03:04:00;7.07;;;3.55;;
37535;SDS011;23379;51.554;6.736;2023-06-14T03:06:27;5.65;;;3.80;;
37535;SDS011;23379;51.554;6.736;2023-06-14T03:08:55;6.78;;;3.90;;
37535;SDS011;23379;51.554;6.736;2023-06-14T03:11:24;5.07;;;3.80;;
37535;SDS011;23379;51.554;6.736;2023-06-14T03:13:50;7.85;;;3.92;;
37535;SDS011;23379;51.554;6.736;2023-06-14T03:16:16;9.85;;;3.90;;
37535;SDS011;23379;51.554;6.736;2023-06-14T03:18:44;6.00;;;3.90;;
37535;SDS011;23379;51.554;6.736;2023-06-14T03:21:10;4.15;;;3.70;;
37535;SDS011;23379;51.554;6.736;2023-06-14T03:23:36;8.05;;;3.75;;
37535;SDS011;23379;51.554;6.736;2023-06-14T03:26:01;8.88;;;3.72;;
37535;SDS011;23379;51.554;6.736;2023-06-14T03:28:27;7.10;;;3.75;;
37535;SDS011;23379;51.554;6.736;2023-06-14T03:30:52;6.47;;;3.85;;
37535;SDS011;23379;51.554;6.736;2023-06-14T03:33:17;8.60;;;3.28;;
37535;SDS011;23379;51.554;6.736;2023-06-14T03:35:43;4.90;;;3.60;;
37535;SDS011;23379;51.554;6.736;2023-06-14T03:38:08;11.07;;;4.32;;
37535;SDS011;23379;51.554;6.736;2023-06-14T03:40:34;7.22;;;3.65;;
37535;SDS011;23379;51.554;6.736;2023-06-14T03:42:59;5.22;;;3.63;;
37535;SDS011;23379;51.554;6.736;2023-06-14T03:45:25;8.00;;;3.92;;
37535;SDS011;23379;51.554;6.736;2023-06-14T03:47:50;5.68;;;3.90;;
37535;SDS011;23379;51.554;6.736;2023-06-14T03:50:17;8.45;;;3.30;;
37535;SDS011;23379;51.554;6.736;2023-06-14T03:52:43;7.97;;;4.00;;
37535;SDS011;23379;51.554;6.736;2023-06-14T03:55:09;5.57;;;4.03;;
37535;SDS011;23379;51.554;6.736;2023-06-14T03:57:35;8.25;;;3.80;;
37535;SDS011;23379;51.554;6.736;2023-06-14T04:00:00;8.70;;;3.50;;
37535;SDS011;23379;51.554;6.736;2023-06-14T04:02:26;6.32;;;3.42;;
37535;SDS011;23379;51.554;6.736;2023-06-14T04:04:54;10.40;;;3.15;;
37535;SDS011;23379;51.554;6.736;2023-06-14T04:07:20;8.50;;;4.07;;
37535;SDS011;23379;51.554;6.736;2023-06-14T04:09:46;9.27;;;3.80;;
37535;SDS011;23379;51.554;6.736;2023-06-14T04:12:12;9.02;;;3.33;;
37535;SDS011;23379;51.554;6.736;2023-06-14T04:14:40;4.88;;;3.80;;
37535;SDS011;23379;51.554;6.736;2023-06-14T04:17:06;5.68;;;3.45;;
37535;SDS011;23379;51.554;6.736;2023-06-14T04:19:31;6.70;;;3.83;;
37535;SDS011;23379;51.554;6.736;2023-06-14T04:21:57;5.95;;;3.85;;
37535;SDS011;23379;51.554;6.736;2023-06-14T04:24:26;9.32;;;3.80;;
37535;SDS011;23379;51.554;6.736;2023-06-14T04:26:56;7.00;;;3.38;;
37535;SDS011;23379;51.554;6.736;2023-06-14T04:29:23;6.82;;;3.42;;
37535;SDS011;23379;51.554;6.736;2023-06-14T04:31:49;5.22;;;3.30;;
37535;SDS011;23379;51.554;6.736;2023-06-14T04:34:16;10.57;;;3.45;;
37535;SDS011;23379;51.554;6.736;2023-06-14T04:36:42;9.82;;;3.60;;
37535;SDS011;23379;51.554;6.736;2023-06-14T04:39:14;6.45;;;3.15;;
37535;SDS011;23379;51.554;6.736;2023-06-14T04:41:46;5.50;;;3.30;;
37535;SDS011;23379;51.554;6.736;2023-06-14T04:44:12;6.78;;;3.22;;
37535;SDS011;23379;51.554;6.736;2023-06-14T04:46:38;7.25;;;3.60;;
37535;SDS011;23379;51.554;6.736;2023-06-14T04:49:14;7.32;;;3.25;;
37535;SDS011;23379;51.554;6.736;2023-06-14T04:51:43;5.85;;;3.15;;
37535;SDS011;23379;51.554;6.736;2023-06-14T04:54:10;6.15;;;2.83;;
37535;SDS011;23379;51.554;6.736;2023-06-14T04:56:38;6.47;;;3.17;;
37535;SDS011;23379;51.554;6.736;2023-06-14T04:59:04;11.52;;;3.15;;
37535;SDS011;23379;51.554;6.736;2023-06-14T05:01:30;10.27;;;3.20;;
37535;SDS011;23379;51.554;6.736;2023-06-14T05:03:57;11.43;;;3.65;;
37535;SDS011;23379;51.554;6.736;2023-06-14T05:06:25;7.75;;;3.47;;
37535;SDS011;23379;51.554;6.736;2023-06-14T05:08:53;12.18;;;3.08;;
37535;SDS011;23379;51.554;6.736;2023-06-14T05:11:19;13.73;;;3.10;;
37535;SDS011;23379;51.554;6.736;2023-06-14T05:13:45;8.27;;;3.15;;
37535;SDS011;23379;51.554;6.736;2023-06-14T05:16:11;8.23;;;3.65;;
37535;SDS011;23379;51.554;6.736;2023-06-14T05:18:37;10.45;;;3.30;;
37535;SDS011;23379;51.554;6.736;2023-06-14T05:21:03;7.90;;;3.20;;
37535;SDS011;23379;51.554;6.736;2023-06-14T05:23:30;7.38;;;2.85;;
37535;SDS011;23379;51.554;6.736;2023-06-14T05:25:56;5.30;;;3.10;;
37535;SDS011;23379;51.554;6.736;2023-06-14T05:28:21;13.70;;;3.28;;
37535;SDS011;23379;51.554;6.736;2023-06-14T05:30:47;5.93;;;3.10;;
37535;SDS011;23379;51.554;6.736;2023-06-14T05:33:13;9.80;;;3.03;;
37535;SDS011;23379;51.554;6.736;2023-06-14T06:00:24;5.82;;;2.90;;
37535;SDS011;23379;51.554;6.736;2023-06-14T06:02:50;11.90;;;2.92;;
37535;SDS011;23379;51.554;6.736;2023-06-14T06:05:15;9.32;;;3.13;;
37535;SDS011;23379;51.554;6.736;2023-06-14T06:07:41;6.80;;;2.63;;
37535;SDS011;23379;51.554;6.736;2023-06-14T06:10:07;5.88;;;3.03;;
37535;SDS011;23379;51.554;6.736;2023-06-14T06:12:32;5.88;;;2.75;;
37535;SDS011;23379;51.554;6.736;2023-06-14T06:14:59;4.75;;;2.80;;
37535;SDS011;23379;51.554;6.736;2023-06-14T06:17:27;16.73;;;3.28;;
37535;SDS011;23379;51.554;6.736;2023-06-14T06:19:53;9.98;;;2.78;;
37535;SDS011;23379;51.554;6.736;2023-06-14T06:22:19;5.82;;;2.72;;
37535;SDS011;23379;51.554;6.736;2023-06-14T06:24:44;10.00;;;2.78;;
37535;SDS011;23379;51.554;6.736;2023-06-14T06:27:09;10.10;;;2.40;;
37535;SDS011;23379;51.554;6.736;2023-06-14T06:29:35;4.82;;;2.60;;
37535;SDS011;23379;51.554;6.736;2023-06-14T06:32:01;8.02;;;2.63;;
37535;SDS011;23379;51.554;6.736;2023-06-14T06:34:27;11.20;;;2.78;;
37535;SDS011;23379;51.554;6.736;2023-06-14T06:36:52;5.97;;;2.33;;
37535;SDS011;23379;51.554;6.736;2023-06-14T06:39:18;16.00;;;2.35;;
37535;SDS011;23379;51.554;6.736;2023-06-14T06:41:43;5.93;;;2.30;;
37535;SDS011;23379;51.554;6.736;2023-06-14T06:44:08;6.35;;;2.30;;
37535;SDS011;23379;51.554;6.736;2023-06-14T06:46:35;6.88;;;2.22;;
37535;SDS011;23379;51.554;6.736;2023-06-14T06:49:05;11.95;;;2.15;;
37535;SDS011;23379;51.554;6.736;2023-06-14T06:51:31;3.70;;;2.05;;
37535;SDS011;23379;51.554;6.736;2023-06-14T06:53:56;4.35;;;1.90;;
37535;SDS011;23379;51.554;6.736;2023-06-14T06:56:21;9.75;;;2.25;;
37535;SDS011;23379;51.554;6.736;2023-06-14T06:58:48;2.47;;;1.67;;
37535;SDS011;23379;51.554;6.736;2023-06-14T07:01:14;4.38;;;1.80;;
37535;SDS011;23379;51.554;6.736;2023-06-14T07:03:39;2.97;;;1.65;;
37535;SDS011;23379;51.554;6.736;2023-06-14T07:06:05;6.63;;;1.98;;
37535;SDS011;23379;51.554;6.736;2023-06-14T07:08:30;2.40;;;1.77;;
37535;SDS011;23379;51.554;6.736;2023-06-14T07:10:56;4.97;;;1.90;;
37535;SDS011;23379;51.554;6.736;2023-06-14T07:15:57;10.07;;;2.05;;
37535;SDS011;23379;51.554;6.736;2023-06-14T07:18:23;4.75;;;1.80;;
37535;SDS011;23379;51.554;6.736;2023-06-14T07:20:49;5.15;;;1.85;;
37535;SDS011;23379;51.554;6.736;2023-06-14T07:23:15;6.63;;;2.17;;
37535;SDS011;23379;51.554;6.736;2023-06-14T07:25:40;4.63;;;2.42;;
37535;SDS011;23379;51.554;6.736;2023-06-14T07:28:06;12.23;;;2.63;;
37535;SDS011;23379;51.554;6.736;2023-06-14T07:30:32;6.78;;;2.20;;
37535;SDS011;23379;51.554;6.736;2023-06-14T07:32:57;5.63;;;1.90;;
37535;SDS011;23379;51.554;6.736;2023-06-14T07:35:23;8.38;;;2.10;;
37535;SDS011;23379;51.554;6.736;2023-06-14T07:37:48;5.32;;;2.28;;
37535;SDS011;23379;51.554;6.736;2023-06-14T07:40:15;6.78;;;2.10;;
37535;SDS011;23379;51.554;6.736;2023-06-14T07:42:40;6.57;;;2.15;;
37535;SDS011;23379;51.554;6.736;2023-06-14T07:45:06;4.05;;;2.03;;
37535;SDS011;23379;51.554;6.736;2023-06-14T07:47:35;4.95;;;1.88;;
37535;SDS011;23379;51.554;6.736;2023-06-14T07:50:00;6.65;;;1.95;;
37535;SDS011;23379;51.554;6.736;2023-06-14T07:52:26;3.35;;;1.73;;
37535;SDS011;23379;51.554;6.736;2023-06-14T07:54:51;6.82;;;1.98;;
37535;SDS011;23379;51.554;6.736;2023-06-14T07:57:17;7.35;;;1.98;;
37535;SDS011;23379;51.554;6.736;2023-06-14T07:59:44;5.22;;;2.17;;
37535;SDS011;23379;51.554;6.736;2023-06-14T08:02:10;8.23;;;1.98;;
37535;SDS011;23379;51.554;6.736;2023-06-14T08:04:35;4.47;;;1.67;;
37535;SDS011;23379;51.554;6.736;2023-06-14T08:07:01;12.73;;;1.98;;
37535;SDS011;23379;51.554;6.736;2023-06-14T08:09:26;6.43;;;1.83;;
37535;SDS011;23379;51.554;6.736;2023-06-14T08:11:53;5.82;;;1.65;;
37535;SDS011;23379;51.554;6.736;2023-06-14T08:14:19;5.75;;;1.67;;
37535;SDS011;23379;51.554;6.736;2023-06-14T08:16:44;7.78;;;1.63;;
37535;SDS011;23379;51.554;6.736;2023-06-14T08:19:10;6.63;;;1.77;;
37535;SDS011;23379;51.554;6.736;2023-06-14T08:21:35;6.60;;;1.75;;
37535;SDS011;23379;51.554;6.736;2023-06-14T08:24:01;5.75;;;1.77;;
37535;SDS011;23379;51.554;6.736;2023-06-14T08:26:27;5.97;;;1.63;;
37535;SDS011;23379;51.554;6.736;2023-06-14T08:28:56;3.08;;;1.63;;
37535;SDS011;23379;51.554;6.736;2023-06-14T08:31:23;8.65;;;1.90;;
37535;SDS011;23379;51.554;6.736;2023-06-14T08:33:49;2.50;;;1.50;;
37535;SDS011;23379;51.554;6.736;2023-06-14T08:36:15;5.90;;;1.77;;
37535;SDS011;23379;51.554;6.736;2023-06-14T08:38:40;5.93;;;1.52;;
37535;SDS011;23379;51.554;6.736;2023-06-14T08:41:06;5.35;;;1.27;;
37535;SDS011;23379;51.554;6.736;2023-06-14T08:43:32;5.97;;;1.60;;
37535;SDS011;23379;51.554;6.736;2023-06-14T08:45:58;6.70;;;1.80;;
37535;SDS011;23379;51.554;6.736;2023-06-14T08:48:26;6.00;;;1.70;;
37535;SDS011;23379;51.554;6.736;2023-06-14T08:50:53;3.45;;;1.73;;
37535;SDS011;23379;51.554;6.736;2023-06-14T08:53:26;7.05;;;1.38;;
37535;SDS011;23379;51.554;6.736;2023-06-14T08:55:53;3.72;;;1.90;;
37535;SDS011;23379;51.554;6.736;2023-06-14T08:58:20;4.70;;;1.73;;
37535;SDS011;23379;51.554;6.736;2023-06-14T09:00:49;7.53;;;1.77;;
37535;SDS011;23379;51.554;6.736;2023-06-14T09:03:17;5.20;;;1.30;;
37535;SDS011;23379;51.554;6.736;2023-06-14T09:05:45;6.78;;;1.60;;
37535;SDS011;23379;51.554;6.736;2023-06-14T09:08:11;9.77;;;1.50;;
37535;SDS011;23379;51.554;6.736;2023-06-14T09:10:36;5.82;;;1.40;;
37535;SDS011;23379;51.554;6.736;2023-06-14T09:13:02;4.72;;;1.23;;
37535;SDS011;23379;51.554;6.736;2023-06-14T09:15:29;6.50;;;1.48;;
37535;SDS011;23379;51.554;6.736;2023-06-14T09:17:56;6.28;;;1.50;;
37535;SDS011;23379;51.554;6.736;2023-06-14T09:20:23;2.60;;;1.27;;
37535;SDS011;23379;51.554;6.736;2023-06-14T09:22:49;4.03;;;1.38;;
37535;SDS011;23379;51.554;6.736;2023-06-14T09:25:14;7.95;;;1.48;;
37535;SDS011;23379;51.554;6.736;2023-06-14T09:27:40;4.10;;;1.20;;
37535;SDS011;23379;51.554;6.736;2023-06-14T09:30:10;5.47;;;1.40;;
37535;SDS011;23379;51.554;6.736;2023-06-14T09:32:38;5.07;;;1.40;;
37535;SDS011;23379;51.554;6.736;2023-06-14T09:35:08;1.73;;;1.17;;
37535;SDS011;23379;51.554;6.736;2023-06-14T09:37:34;1.77;;;0.98;;
37535;SDS011;23379;51.554;6.736;2023-06-14T09:40:00;1.48;;;1.13;;
37535;SDS011;23379;51.554;6.736;2023-06-14T09:42:26;4.47;;;1.40;;
37535;SDS011;23379;51.554;6.736;2023-06-14T09:44:53;5.63;;;1.10;;
37535;SDS011;23379;51.554;6.736;2023-06-14T09:47:19;3.67;;;1.05;;
37535;SDS011;23379;51.554;6.736;2023-06-14T09:49:45;1.88;;;1.00;;
37535;SDS011;23379;51.554;6.736;2023-06-14T09:52:13;2.15;;;1.20;;
37535;SDS011;23379;51.554;6.736;2023-06-14T09:54:41;6.72;;;1.30;;
37535;SDS011;23379;51.554;6.736;2023-06-14T09:57:15;4.45;;;1.10;;
37535;SDS011;23379;51.554;6.736;2023-06-14T09:59:48;4.18;;;0.73;;
37535;SDS011;23379;51.554;6.736;2023-06-14T10:02:28;2.10;;;1.10;;
37535;SDS011;23379;51.554;6.736;2023-06-14T10:05:00;3.30;;;1.00;;
37535;SDS011;23379;51.554;6.736;2023-06-14T10:07:30;2.42;;;0.77;;
37535;SDS011;23379;51.554;6.736;2023-06-14T10:10:00;2.75;;;0.90;;
37535;SDS011;23379;51.554;6.736;2023-06-14T10:12:26;7.25;;;1.00;;
37535;SDS011;23379;51.554;6.736;2023-06-14T10:14:52;3.03;;;0.80;;
37535;SDS011;23379;51.554;6.736;2023-06-14T10:20:02;5.72;;;0.90;;
37535;SDS011;23379;51.554;6.736;2023-06-14T10:22:42;2.88;;;0.65;;
37535;SDS011;23379;51.554;6.736;2023-06-14T10:25:25;2.33;;;0.60;;
37535;SDS011;23379;51.554;6.736;2023-06-14T10:28:14;0.80;;;0.60;;
37535;SDS011;23379;51.554;6.736;2023-06-14T10:33:31;3.53;;;0.70;;
37535;SDS011;23379;51.554;6.736;2023-06-14T10:36:07;4.60;;;0.90;;
37535;SDS011;23379;51.554;6.736;2023-06-14T10:38:32;4.10;;;0.60;;
37535;SDS011;23379;51.554;6.736;2023-06-14T10:40:59;6.95;;;0.60;;
37535;SDS011;23379;51.554;6.736;2023-06-14T10:43:25;8.32;;;0.90;;
37535;SDS011;23379;51.554;6.736;2023-06-14T10:48:41;4.30;;;0.50;;
37535;SDS011;23379;51.554;6.736;2023-06-14T10:51:14;2.92;;;0.50;;
37535;SDS011;23379;51.554;6.736;2023-06-14T10:53:45;7.05;;;0.80;;
37535;SDS011;23379;51.554;6.736;2023-06-14T10:56:26;4.60;;;0.82;;
37535;SDS011;23379;51.554;6.736;2023-06-14T11:04:07;4.68;;;0.63;;
37535;SDS011;23379;51.554;6.736;2023-06-14T11:06:49;2.55;;;0.60;;
37535;SDS011;23379;51.554;6.736;2023-06-14T11:09:24;4.10;;;0.50;;
37535;SDS011;23379;51.554;6.736;2023-06-14T11:12:06;6.43;;;0.55;;
37535;SDS011;23379;51.554;6.736;2023-06-14T11:14:35;3.00;;;0.52;;
37535;SDS011;23379;51.554;6.736;2023-06-14T11:17:01;6.15;;;0.70;;
37535;SDS011;23379;51.554;6.736;2023-06-14T11:19:26;7.35;;;0.68;;
37535;SDS011;23379;51.554;6.736;2023-06-14T11:21:53;3.38;;;0.70;;
37535;SDS011;23379;51.554;6.736;2023-06-14T11:24:19;3.50;;;0.50;;
37535;SDS011;23379;51.554;6.736;2023-06-14T11:26:46;3.50;;;0.80;;
37535;SDS011;23379;51.554;6.736;2023-06-14T11:29:12;1.67;;;0.60;;
37535;SDS011;23379;51.554;6.736;2023-06-14T11:31:42;2.17;;;0.50;;
37535;SDS011;23379;51.554;6.736;2023-06-14T11:34:09;1.15;;;0.45;;
37535;SDS011;23379;51.554;6.736;2023-06-14T11:36:35;3.13;;;0.55;;
37535;SDS011;23379;51.554;6.736;2023-06-14T11:39:01;0.95;;;0.47;;
37535;SDS011;23379;51.554;6.736;2023-06-14T11:44:04;4.13;;;0.70;;
37535;SDS011;23379;51.554;6.736;2023-06-14T11:46:30;3.53;;;0.47;;
37535;SDS011;23379;51.554;6.736;2023-06-14T11:48:56;6.65;;;0.57;;
37535;SDS011;23379;51.554;6.736;2023-06-14T11:51:21;1.55;;;0.75;;
37535;SDS011;23379;51.554;6.736;2023-06-14T11:53:46;3.45;;;0.40;;
37535;SDS011;23379;51.554;6.736;2023-06-14T11:56:13;1.60;;;0.60;;
37535;SDS011;23379;51.554;6.736;2023-06-14T11:58:38;13.52;;;0.98;;
37535;SDS011;23379;51.554;6.736;2023-06-14T12:01:05;8.27;;;1.10;;
37535;SDS011;23379;51.554;6.736;2023-06-14T12:03:30;6.95;;;0.50;;
37535;SDS011;23379;51.554;6.736;2023-06-14T12:06:05;3.40;;;0.60;;
37535;SDS011;23379;51.554;6.736;2023-06-14T12:08:35;7.35;;;0.50;;
37535;SDS011;23379;51.554;6.736;2023-06-14T12:11:11;2.03;;;0.52;;
37535;SDS011;23379;51.554;6.736;2023-06-14T12:13:38;4.78;;;0.52;;
37535;SDS011;23379;51.554;6.736;2023-06-14T12:16:06;1.98;;;0.70;;
37535;SDS011;23379;51.554;6.736;2023-06-14T12:18:36;1.23;;;0.70;;
37535;SDS011;23379;51.554;6.736;2023-06-14T12:21:03;2.00;;;0.95;;
37535;SDS011;23379;51.554;6.736;2023-06-14T12:23:47;5.50;;;0.82;;
37535;SDS011;23379;51.554;6.736;2023-06-14T12:26:17;8.25;;;0.90;;
37535;SDS011;23379;51.554;6.736;2023-06-14T12:28:44;2.50;;;0.60;;
37535;SDS011;23379;51.554;6.736;2023-06-14T12:31:11;3.72;;;0.40;;
37535;SDS011;23379;51.554;6.736;2023-06-14T12:33:37;3.58;;;0.65;;
37535;SDS011;23379;51.554;6.736;2023-06-14T12:36:03;4.70;;;1.13;;
37535;SDS011;23379;51.554;6.736;2023-06-14T12:38:30;2.22;;;0.70;;
37535;SDS011;23379;51.554;6.736;2023-06-14T12:40:56;8.73;;;0.90;;
37535;SDS011;23379;51.554;6.736;2023-06-14T12:43:22;3.92;;;0.57;;
37535;SDS011;23379;51.554;6.736;2023-06-14T12:45:48;4.80;;;1.00;;
37535;SDS011;23379;51.554;6.736;2023-06-14T12:48:13;1.73;;;0.75;;
37535;SDS011;23379;51.554;6.736;2023-06-14T12:50:39;7.15;;;0.95;;
37535;SDS011;23379;51.554;6.736;2023-06-14T12:53:04;2.92;;;0.68;;
37535;SDS011;23379;51.554;6.736;2023-06-14T12:55:29;3.92;;;0.70;;
37535;SDS011;23379;51.554;6.736;2023-06-14T12:57:55;3.85;;;0.75;;
37535;SDS011;23379;51.554;6.736;2023-06-14T13:00:20;2.55;;;0.98;;
37535;SDS011;23379;51.554;6.736;2023-06-14T13:02:47;2.70;;;0.70;;
37535;SDS011;23379;51.554;6.736;2023-06-14T13:05:12;3.65;;;0.80;;
37535;SDS011;23379;51.554;6.736;2023-06-14T13:07:37;6.18;;;1.00;;
37535;SDS011;23379;51.554;6.736;2023-06-14T13:10:03;2.35;;;0.82;;
37535;SDS011;23379;51.554;6.736;2023-06-14T13:12:29;1.88;;;0.90;;
37535;SDS011;23379;51.554;6.736;2023-06-14T13:14:54;3.05;;;1.00;;
37535;SDS011;23379;51.554;6.736;2023-06-14T13:17:19;3.78;;;1.13;;
37535;SDS011;23379;51.554;6.736;2023-06-14T13:19:45;4.38;;;1.10;;
37535;SDS011;23379;51.554;6.736;2023-06-14T13:22:10;3.90;;;0.95;;
37535;SDS011;23379;51.554;6.736;2023-06-14T13:24:35;5.22;;;1.17;;
37535;SDS011;23379;51.554;6.736;2023-06-14T13:27:01;1.67;;;0.73;;
37535;SDS011;23379;51.554;6.736;2023-06-14T13:29:27;6.45;;;0.95;;
37535;SDS011;23379;51.554;6.736;2023-06-14T13:31:52;7.63;;;1.10;;
37535;SDS011;23379;51.554;6.736;2023-06-14T13:34:18;5.38;;;0.90;;
37535;SDS011;23379;51.554;6.736;2023-06-14T13:36:44;4.78;;;1.13;;
37535;SDS011;23379;51.554;6.736;2023-06-14T13:39:09;2.63;;;1.05;;
37535;SDS011;23379;51.554;6.736;2023-06-14T13:41:36;2.58;;;1.10;;
37535;SDS011;23379;51.554;6.736;2023-06-14T13:44:02;3.67;;;1.13;;
37535;SDS011;23379;51.554;6.736;2023-06-14T13:46:31;6.72;;;1.25;;
37535;SDS011;23379;51.554;6.736;2023-06-14T13:48:56;3.17;;;1.27;;
37535;SDS011;23379;51.554;6.736;2023-06-14T13:51:23;3.50;;;1.20;;
37535;SDS011;23379;51.554;6.736;2023-06-14T13:53:49;4.30;;;1.20;;
37535;SDS011;23379;51.554;6.736;2023-06-14T13:56:14;2.80;;;1.05;;
37535;SDS011;23379;51.554;6.736;2023-06-14T13:58:40;4.82;;;1.50;;
37535;SDS011;23379;51.554;6.736;2023-06-14T14:01:05;5.03;;;1.13;;
37535;SDS011;23379;51.554;6.736;2023-06-14T14:03:32;4.00;;;1.30;;
37535;SDS011;23379;51.554;6.736;2023-06-14T14:06:00;1.50;;;0.93;;
37535;SDS011;23379;51.554;6.736;2023-06-14T14:08:26;4.40;;;1.63;;
37535;SDS011;23379;51.554;6.736;2023-06-14T14:10:51;8.00;;;1.50;;
37535;SDS011;23379;51.554;6.736;2023-06-14T14:13:17;2.55;;;1.02;;
37535;SDS011;23379;51.554;6.736;2023-06-14T14:15:42;4.20;;;1.42;;
37535;SDS011;23379;51.554;6.736;2023-06-14T14:18:08;4.43;;;1.38;;
37535;SDS011;23379;51.554;6.736;2023-06-14T14:20:33;6.10;;;1.52;;
37535;SDS011;23379;51.554;6.736;2023-06-14T14:22:59;3.70;;;1.40;;
37535;SDS011;23379;51.554;6.736;2023-06-14T14:25:24;5.35;;;1.60;;
37535;SDS011;23379;51.554;6.736;2023-06-14T14:27:50;9.60;;;1.50;;
37535;SDS011;23379;51.554;6.736;2023-06-14T14:30:15;2.25;;;1.65;;
37535;SDS011;23379;51.554;6.736;2023-06-14T14:32:42;2.63;;;1.50;;
37535;SDS011;23379;51.554;6.736;2023-06-14T14:35:08;3.17;;;1.50;;
37535;SDS011;23379;51.554;6.736;2023-06-14T14:37:33;9.00;;;1.70;;
37535;SDS011;23379;51.554;6.736;2023-06-14T14:39:59;6.93;;;1.77;;
37535;SDS011;23379;51.554;6.736;2023-06-14T14:42:24;3.28;;;1.65;;
37535;SDS011;23379;51.554;6.736;2023-06-14T14:44:51;3.03;;;1.33;;
37535;SDS011;23379;51.554;6.736;2023-06-14T14:47:17;5.40;;;1.50;;
37535;SDS011;23379;51.554;6.736;2023-06-14T14:49:42;4.45;;;1.50;;
37535;SDS011;23379;51.554;6.736;2023-06-14T14:52:07;5.93;;;1.67;;
37535;SDS011;23379;51.554;6.736;2023-06-14T14:54:33;4.15;;;1.75;;
37535;SDS011;23379;51.554;6.736;2023-06-14T14:59:27;2.38;;;1.50;;
37535;SDS011;23379;51.554;6.736;2023-06-14T15:01:52;3.75;;;1.55;;
37535;SDS011;23379;51.554;6.736;2023-06-14T15:04:17;3.70;;;1.50;;
37535;SDS011;23379;51.554;6.736;2023-06-14T15:06:43;3.97;;;1.50;;
37535;SDS011;23379;51.554;6.736;2023-06-14T15:09:08;3.55;;;1.70;;
37535;SDS011;23379;51.554;6.736;2023-06-14T15:11:34;1.58;;;1.30;;
37535;SDS011;23379;51.554;6.736;2023-06-14T15:13:59;3.65;;;1.75;;
37535;SDS011;23379;51.554;6.736;2023-06-14T15:16:25;4.40;;;1.60;;
37535;SDS011;23379;51.554;6.736;2023-06-14T15:18:50;6.47;;;1.80;;
37535;SDS011;23379;51.554;6.736;2023-06-14T15:21:16;4.00;;;1.50;;
37535;SDS011;23379;51.554;6.736;2023-06-14T15:23:44;3.97;;;1.50;;
37535;SDS011;23379;51.554;6.736;2023-06-14T15:26:10;1.55;;;1.35;;
37535;SDS011;23379;51.554;6.736;2023-06-14T15:28:36;2.92;;;1.50;;
37535;SDS011;23379;51.554;6.736;2023-06-14T15:31:01;4.35;;;1.60;;